Time;durP1;ratioP1;P1;durP2;ratioP2;P2;SDS_P1;SDS_P2;PMS_P1;PMS_P2;Temp;Humidity;BMP_temperature;BMP_pressure;BME280_temperature;BME280_humidity;BME280_pressure;Samples;Min_cycle;Max_cycle;Signal;HPM_P1;HPM_P2
2022/03/11 00:02:06;;;;;;;14.17;11.27;;;5.20;70.80;;;;;;5065134;28;20216;-86
2022/03/11 00:04:32;;;;;;;13.43;11.60;;;5.20;70.90;;;;;;5047428;28;20176;-89
2022/03/11 00:07:00;;;;;;;14.03;12.03;;;5.20;70.40;;;;;;5060728;28;20207;-85
2022/03/11 00:09:26;;;;;;;14.73;11.87;;;5.20;70.50;;;;;;5060003;28;20270;-89
2022/03/11 00:11:52;;;;;;;14.67;12.13;;;5.20;70.60;;;;;;5070936;28;20180;-89
2022/03/11 00:14:18;;;;;;;13.57;11.23;;;5.20;70.70;;;;;;5067173;28;20203;-90
2022/03/11 00:16:44;;;;;;;14.10;11.80;;;5.20;70.50;;;;;;5073139;28;20168;-88
2022/03/11 00:19:10;;;;;;;17.90;12.27;;;5.20;70.60;;;;;;5076899;28;20167;-90
2022/03/11 00:21:36;;;;;;;15.37;12.10;;;5.00;71.00;;;;;;5071982;28;20175;-86
2022/03/11 00:24:01;;;;;;;12.20;10.90;;;5.00;71.10;;;;;;5040332;28;20176;-87
2022/03/11 00:26:27;;;;;;;13.47;11.13;;;5.10;71.00;;;;;;5057383;28;20252;-88
2022/03/11 00:28:53;;;;;;;17.17;13.17;;;5.10;71.10;;;;;;5055080;28;20258;-89
2022/03/11 00:31:19;;;;;;;13.87;12.07;;;5.00;71.00;;;;;;5055177;28;20177;-87
2022/03/11 00:33:45;;;;;;;13.53;11.80;;;5.00;71.10;;;;;;5055456;28;20567;-89
2022/03/11 00:36:11;;;;;;;14.23;12.07;;;5.00;71.20;;;;;;5036769;28;20230;-88
2022/03/11 00:38:36;;;;;;;13.00;11.37;;;5.00;71.20;;;;;;5054805;28;20252;-89
2022/03/11 00:41:02;;;;;;;13.17;11.47;;;5.00;70.70;;;;;;5055019;28;20172;-85
2022/03/11 00:43:28;;;;;;;12.67;11.07;;;5.00;70.70;;;;;;5036987;28;20183;-88
2022/03/11 00:45:54;;;;;;;13.43;11.60;;;4.90;70.90;;;;;;5054549;28;20220;-89
2022/03/11 00:48:21;;;;;;;14.57;11.50;;;4.80;71.30;;;;;;5036826;28;20209;-90
2022/03/11 00:50:48;;;;;;;16.67;12.40;;;4.60;71.70;;;;;;5060625;28;20178;-87
2022/03/11 00:53:14;;;;;;;15.33;11.80;;;4.50;72.30;;;;;;5057403;28;20620;-88
2022/03/11 00:55:40;;;;;;;15.13;11.87;;;4.50;72.30;;;;;;5036594;28;20183;-86
2022/03/11 00:58:05;;;;;;;15.00;12.07;;;4.40;72.70;;;;;;5049410;28;20207;-86
2022/03/11 01:00:32;;;;;;;14.47;12.27;;;4.30;73.00;;;;;;5063580;28;20228;-89
2022/03/11 01:02:58;;;;;;;14.57;12.77;;;4.30;73.40;;;;;;5055387;28;20260;-86
2022/03/11 01:05:24;;;;;;;16.27;13.13;;;4.20;73.40;;;;;;5036315;28;20213;-87
2022/03/11 01:07:51;;;;;;;16.60;13.27;;;4.20;73.90;;;;;;5054484;28;20652;-85
2022/03/11 01:10:17;;;;;;;14.77;12.23;;;4.00;73.90;;;;;;5036244;28;20642;-90
2022/03/11 01:12:43;;;;;;;15.80;13.40;;;3.90;73.90;;;;;;5056212;28;20198;-85
2022/03/11 01:15:10;;;;;;;17.90;13.30;;;3.90;74.30;;;;;;5058769;28;20285;-87
2022/03/11 01:17:37;;;;;;;14.90;11.70;;;3.90;74.90;;;;;;5054768;28;20631;-86
2022/03/11 01:20:05;;;;;;;11.37;10.17;;;3.90;73.10;;;;;;5058287;28;20169;-86
2022/03/11 01:22:31;;;;;;;11.90;9.67;;;3.80;71.50;;;;;;5055166;28;20179;-86
2022/03/11 01:24:57;;;;;;;11.07;7.77;;;3.80;70.80;;;;;;5054117;28;20607;-86
2022/03/11 01:27:23;;;;;;;7.73;6.83;;;3.80;66.20;;;;;;5053931;28;20231;-85
2022/03/11 01:29:48;;;;;;;8.23;7.43;;;3.50;64.30;;;;;;5053828;28;20171;-85
2022/03/11 01:32:14;;;;;;;8.50;7.10;;;3.30;64.40;;;;;;5058490;28;20188;-85
2022/03/11 01:34:40;;;;;;;10.40;6.63;;;3.20;64.90;;;;;;5063088;28;20659;-84
2022/03/11 01:37:06;;;;;;;8.90;7.17;;;3.20;64.40;;;;;;5061064;28;20167;-85
2022/03/11 01:39:32;;;;;;;9.07;7.13;;;3.20;65.20;;;;;;5056817;28;20184;-86
2022/03/11 01:41:58;;;;;;;9.03;6.47;;;3.20;64.00;;;;;;5055496;28;20172;-87
2022/03/11 01:44:25;;;;;;;9.90;6.60;;;3.10;63.80;;;;;;5055060;28;20175;-86
2022/03/11 01:46:51;;;;;;;8.73;7.00;;;2.90;62.50;;;;;;5054418;28;20222;-87
2022/03/11 01:49:17;;;;;;;7.20;6.50;;;2.70;61.40;;;;;;5053601;28;20174;-87
2022/03/11 01:51:44;;;;;;;6.83;6.20;;;2.60;61.10;;;;;;5035711;28;20666;-89
2022/03/11 01:54:10;;;;;;;8.33;6.47;;;2.40;60.80;;;;;;5054009;28;20169;-89
2022/03/11 01:56:37;;;;;;;8.70;6.27;;;2.40;61.50;;;;;;5056057;28;20538;-87
2022/03/11 01:59:04;;;;;;;7.53;6.33;;;2.40;61.90;;;;;;5058979;28;20237;-84
2022/03/11 02:01:30;;;;;;;6.30;5.70;;;2.50;63.20;;;;;;5058588;28;20191;-85
2022/03/11 02:03:59;;;;;;;7.27;6.27;;;2.50;61.90;;;;;;5061143;28;20179;-86
2022/03/11 02:06:26;;;;;;;10.30;6.40;;;2.60;62.60;;;;;;5057689;28;20204;-87
2022/03/11 02:08:53;;;;;;;7.13;6.43;;;2.50;62.80;;;;;;5057071;28;20167;-85
2022/03/11 02:11:20;;;;;;;12.20;6.90;;;2.50;63.20;;;;;;5057892;28;20178;-85
2022/03/11 02:13:51;;;;;;;10.03;7.23;;;2.50;61.50;;;;;;5035958;28;20228;-85
2022/03/11 02:16:25;;;;;;;8.27;6.67;;;2.30;61.80;;;;;;5053365;28;20167;-89
2022/03/11 02:18:51;;;;;;;6.70;6.10;;;2.10;61.90;;;;;;5054052;28;20160;-89
2022/03/11 02:21:20;;;;;;;10.57;6.80;;;2.00;61.90;;;;;;5053694;28;20526;-87
2022/03/11 02:23:47;;;;;;;7.03;6.33;;;1.70;61.90;;;;;;5054023;28;20651;-87
2022/03/11 02:26:15;;;;;;;12.60;6.50;;;1.80;62.20;;;;;;5053394;28;20695;-85
2022/03/11 02:28:42;;;;;;;7.20;6.30;;;1.80;62.20;;;;;;5053704;28;20180;-89
2022/03/11 02:31:08;;;;;;;7.17;6.10;;;1.70;61.70;;;;;;5057690;28;20700;-89
2022/03/11 02:33:33;;;;;;;9.17;6.13;;;1.70;62.10;;;;;;5057172;28;20204;-85
2022/03/11 02:35:59;;;;;;;7.20;6.23;;;1.80;62.80;;;;;;5038575;28;20711;-85
2022/03/11 02:38:26;;;;;;;7.43;6.63;;;1.90;62.00;;;;;;5039268;28;20178;-88
2022/03/11 02:40:53;;;;;;;7.07;6.37;;;1.90;62.60;;;;;;5038781;28;20174;-87
2022/03/11 02:43:19;;;;;;;6.93;6.30;;;1.80;62.30;;;;;;5057189;28;20194;-84
2022/03/11 02:45:45;;;;;;;8.93;6.40;;;1.90;62.90;;;;;;5056540;28;20200;-85
2022/03/11 02:48:11;;;;;;;7.13;6.47;;;1.90;62.60;;;;;;5056398;28;20543;-84
2022/03/11 02:50:37;;;;;;;7.00;6.30;;;1.90;62.50;;;;;;5059258;28;20200;-86
2022/03/11 02:53:03;;;;;;;8.60;6.27;;;1.80;62.90;;;;;;5056804;28;20181;-86
2022/03/11 02:55:29;;;;;;;7.13;6.43;;;1.90;63.40;;;;;;5056497;28;20597;-85
2022/03/11 02:57:55;;;;;;;6.30;5.70;;;1.90;63.20;;;;;;5056638;28;20190;-88
2022/03/11 03:00:21;;;;;;;7.57;5.80;;;1.80;63.60;;;;;;5056600;28;20174;-90
2022/03/11 03:02:47;;;;;;;7.53;6.10;;;1.80;63.80;;;;;;5056492;28;20185;-89
2022/03/11 03:05:15;;;;;;;7.70;6.60;;;1.80;63.30;;;;;;5038981;28;20173;-90
2022/03/11 03:07:41;;;;;;;7.00;6.13;;;1.90;63.80;;;;;;5038592;28;20188;-89
2022/03/11 03:10:08;;;;;;;7.67;6.60;;;1.90;62.80;;;;;;5056745;28;20178;-90
2022/03/11 03:12:34;;;;;;;6.60;6.00;;;1.80;62.70;;;;;;5056919;28;20504;-91
2022/03/11 03:15:00;;;;;;;8.03;6.33;;;1.70;63.10;;;;;;5056964;28;20185;-91
2022/03/11 03:17:26;;;;;;;8.33;7.47;;;1.70;63.10;;;;;;5057226;28;20180;-90
2022/03/11 03:19:52;;;;;;;9.43;7.30;;;1.60;64.30;;;;;;5038788;28;20209;-91
2022/03/11 03:22:17;;;;;;;13.03;7.97;;;1.60;65.40;;;;;;5065980;28;20184;-91
2022/03/11 03:24:43;;;;;;;9.97;8.97;;;1.40;65.90;;;;;;5067019;28;20165;-90
2022/03/11 03:27:10;;;;;;;10.87;8.47;;;1.50;66.10;;;;;;5044114;28;20216;-92
2022/03/11 03:29:36;;;;;;;10.67;8.53;;;1.40;66.20;;;;;;5043407;28;20193;-90
2022/03/11 03:32:02;;;;;;;10.07;7.57;;;1.30;66.10;;;;;;5020697;28;20174;-85
2022/03/11 03:34:29;;;;;;;9.70;8.00;;;1.00;66.20;;;;;;5036807;28;20221;-86
2022/03/11 03:36:57;;;;;;;9.27;7.80;;;0.90;66.70;;;;;;5022295;28;20211;-88
2022/03/11 03:39:23;;;;;;;9.27;7.17;;;0.90;66.50;;;;;;5043265;28;20170;-89
2022/03/11 03:41:48;;;;;;;12.37;8.20;;;0.90;66.50;;;;;;5048784;28;20199;-83
2022/03/11 03:44:14;;;;;;;9.87;7.50;;;0.80;66.40;;;;;;5045528;28;20197;-88
2022/03/11 03:46:40;;;;;;;9.87;7.27;;;0.80;66.50;;;;;;5036157;28;20575;-90
2022/03/11 03:49:06;;;;;;;8.63;7.30;;;0.80;66.40;;;;;;5039473;28;20184;-88
2022/03/11 03:51:31;;;;;;;8.20;6.77;;;0.80;66.40;;;;;;5045139;28;20228;-90
2022/03/11 03:53:57;;;;;;;8.80;7.90;;;0.70;66.20;;;;;;5039639;28;20173;-89
2022/03/11 03:56:23;;;;;;;8.30;7.20;;;0.60;66.10;;;;;;5046656;28;20189;-85
2022/03/11 03:58:49;;;;;;;7.27;6.53;;;0.50;65.70;;;;;;5047820;28;20233;-86
2022/03/11 04:01:15;;;;;;;8.53;7.47;;;0.50;66.10;;;;;;5039619;28;20215;-86
2022/03/11 04:03:40;;;;;;;8.77;6.70;;;0.60;65.90;;;;;;5037596;28;20178;-88
2022/03/11 04:06:06;;;;;;;8.80;7.03;;;0.50;66.10;;;;;;5037221;28;20263;-89
2022/03/11 04:08:32;;;;;;;9.07;6.77;;;0.40;66.00;;;;;;5040105;28;20183;-89
2022/03/11 04:10:58;;;;;;;7.77;6.47;;;0.40;65.90;;;;;;5036692;28;20629;-86
2022/03/11 04:13:24;;;;;;;10.83;6.83;;;0.40;66.00;;;;;;5036602;28;20169;-88
2022/03/11 04:15:50;;;;;;;7.03;6.33;;;0.40;65.70;;;;;;5031443;28;20178;-87
2022/03/11 04:18:16;;;;;;;8.27;7.30;;;0.40;65.50;;;;;;5046978;28;20186;-85
2022/03/11 04:20:41;;;;;;;7.63;6.50;;;0.50;65.70;;;;;;5045912;28;20173;-86
2022/03/11 04:23:07;;;;;;;6.97;6.27;;;0.50;65.30;;;;;;5035659;28;20213;-88
2022/03/11 04:25:33;;;;;;;10.73;6.27;;;0.50;65.20;;;;;;5035074;28;20207;-87
2022/03/11 04:27:59;;;;;;;6.60;5.90;;;0.60;64.80;;;;;;5035148;28;20253;-86
2022/03/11 04:30:25;;;;;;;6.67;5.80;;;0.60;64.80;;;;;;5038985;28;20193;-86
2022/03/11 04:32:51;;;;;;;7.30;6.30;;;0.40;64.60;;;;;;5036136;28;20165;-87
2022/03/11 04:35:18;;;;;;;7.53;6.60;;;0.50;64.80;;;;;;5035503;28;20286;-90
2022/03/11 04:37:43;;;;;;;8.93;6.40;;;0.50;65.10;;;;;;5016941;28;20176;-86
2022/03/11 04:40:10;;;;;;;7.47;5.90;;;0.50;65.00;;;;;;5034821;28;20173;-85
2022/03/11 04:42:36;;;;;;;8.03;6.20;;;0.50;65.30;;;;;;5016913;28;20176;-86
2022/03/11 04:45:03;;;;;;;9.30;6.80;;;0.50;65.00;;;;;;5034453;28;20176;-85
2022/03/11 04:47:29;;;;;;;7.43;6.43;;;0.50;65.30;;;;;;5033362;28;20363;-86
2022/03/11 04:49:54;;;;;;;7.77;6.00;;;0.50;65.30;;;;;;5037847;28;20199;-89
2022/03/11 04:52:21;;;;;;;9.53;6.50;;;0.60;65.10;;;;;;5033696;28;20177;-85
2022/03/11 04:54:46;;;;;;;8.63;7.00;;;0.60;64.70;;;;;;5033911;28;20176;-86
2022/03/11 04:57:12;;;;;;;6.83;6.10;;;0.60;65.10;;;;;;5034417;28;20509;-87
2022/03/11 04:59:38;;;;;;;7.30;6.43;;;0.60;65.10;;;;;;5033972;28;20230;-86
2022/03/11 05:02:04;;;;;;;6.83;6.17;;;0.50;64.50;;;;;;5034287;28;20177;-86
2022/03/11 05:04:29;;;;;;;7.40;6.67;;;0.40;64.80;;;;;;5034011;28;20228;-86
2022/03/11 05:06:55;;;;;;;7.50;6.50;;;0.30;65.10;;;;;;5034168;28;20200;-85
2022/03/11 05:09:21;;;;;;;6.70;5.90;;;0.40;64.80;;;;;;5016102;28;20169;-85
2022/03/11 05:11:46;;;;;;;6.90;6.07;;;0.40;64.80;;;;;;5034474;28;20184;-89
2022/03/11 05:14:12;;;;;;;9.33;6.10;;;0.40;65.00;;;;;;5034378;28;20168;-89
2022/03/11 05:16:38;;;;;;;7.87;6.43;;;0.40;64.70;;;;;;5034646;28;20203;-90
2022/03/11 05:19:04;;;;;;;7.17;6.07;;;0.30;64.80;;;;;;5018611;28;20181;-89
2022/03/11 05:21:29;;;;;;;7.17;6.47;;;0.30;65.00;;;;;;5039264;28;20181;-88
2022/03/11 05:23:59;;;;;;;8.60;6.60;;;0.20;64.90;;;;;;5041915;28;20214;-89
2022/03/11 05:26:25;;;;;;;7.50;5.90;;;0.30;65.10;;;;;;5023106;28;20208;-85
2022/03/11 05:28:55;;;;;;;7.67;6.07;;;0.30;64.80;;;;;;5035954;28;20181;-87
2022/03/11 05:31:22;;;;;;;5.83;5.33;;;0.30;65.10;;;;;;5033647;28;20172;-85
2022/03/11 05:33:49;;;;;;;7.03;6.33;;;0.30;65.00;;;;;;5033544;28;20251;-84
2022/03/11 05:36:15;;;;;;;6.80;5.27;;;0.30;64.60;;;;;;5034163;28;20595;-89
2022/03/11 05:38:41;;;;;;;6.00;5.40;;;0.30;64.00;;;;;;5033504;28;20255;-89
2022/03/11 05:41:07;;;;;;;6.33;5.70;;;0.20;64.00;;;;;;5033925;28;20164;-88
2022/03/11 05:43:33;;;;;;;6.80;5.37;;;0.20;64.10;;;;;;5033032;28;20578;-89
2022/03/11 05:45:59;;;;;;;6.53;5.93;;;0.20;63.90;;;;;;5033893;28;20236;-90
2022/03/11 05:48:24;;;;;;;7.13;6.03;;;0.20;64.10;;;;;;5015489;28;20178;-87
2022/03/11 05:50:50;;;;;;;6.23;5.53;;;0.20;63.40;;;;;;5033820;28;20218;-86
2022/03/11 05:53:16;;;;;;;8.17;6.23;;;0.10;63.20;;;;;;5033772;28;20172;-87
2022/03/11 05:55:42;;;;;;;7.00;5.90;;;0.20;63.30;;;;;;5034226;28;20204;-89
2022/03/11 05:58:08;;;;;;;6.63;6.03;;;0.10;62.70;;;;;;5033794;28;20580;-90
2022/03/11 06:00:33;;;;;;;6.83;6.00;;;0.10;62.70;;;;;;5034863;28;20173;-87
2022/03/11 06:02:59;;;;;;;6.57;5.83;;;0.10;62.60;;;;;;5016433;28;20219;-89
2022/03/11 06:05:25;;;;;;;7.60;5.67;;;0.20;62.60;;;;;;5048442;28;20172;-85
2022/03/11 06:07:51;;;;;;;6.50;5.87;;;0.20;62.60;;;;;;5050357;28;20165;-86
2022/03/11 06:10:17;;;;;;;6.23;5.63;;;0.20;62.50;;;;;;5044930;28;20191;-89
2022/03/11 06:12:43;;;;;;;7.53;6.10;;;0.30;62.60;;;;;;5047508;28;20247;-84
2022/03/11 06:15:11;;;;;;;6.83;6.13;;;0.30;62.00;;;;;;5040671;28;20164;-84
2022/03/11 06:17:37;;;;;;;6.57;6.00;;;0.20;61.60;;;;;;5036401;28;20267;-87
2022/03/11 06:20:05;;;;;;;6.40;5.80;;;0.30;61.80;;;;;;5025992;28;20192;-87
2022/03/11 06:22:31;;;;;;;6.53;5.93;;;0.30;61.90;;;;;;5044665;28;20169;-85
2022/03/11 06:24:59;;;;;;;7.53;5.90;;;0.30;61.80;;;;;;5041619;28;20177;-85
2022/03/11 06:27:29;;;;;;;7.47;6.77;;;0.30;61.30;;;;;;5039946;28;20214;-87
2022/03/11 06:29:54;;;;;;;6.73;6.00;;;0.40;60.90;;;;;;5039363;28;20166;-89
2022/03/11 06:32:21;;;;;;;6.83;5.60;;;0.40;60.80;;;;;;5046485;28;20200;-86
2022/03/11 06:34:50;;;;;;;6.40;5.80;;;0.50;60.50;;;;;;5034369;28;20693;-89
2022/03/11 06:37:16;;;;;;;6.47;5.80;;;0.50;60.50;;;;;;5044492;28;20201;-85
2022/03/11 06:39:42;;;;;;;5.90;5.33;;;0.60;60.20;;;;;;5027614;28;20172;-87
2022/03/11 06:42:08;;;;;;;6.43;5.73;;;0.60;60.40;;;;;;5027834;28;20185;-89
2022/03/11 06:44:34;;;;;;;8.50;5.83;;;0.60;59.70;;;;;;5040652;28;20175;-90
2022/03/11 06:46:59;;;;;;;6.07;5.57;;;0.70;59.50;;;;;;5021508;28;20233;-85
2022/03/11 06:49:25;;;;;;;6.53;5.67;;;0.60;59.70;;;;;;5037563;28;20655;-86
2022/03/11 06:51:51;;;;;;;5.90;5.40;;;0.60;59.10;;;;;;5019051;28;20200;-87
2022/03/11 06:54:17;;;;;;;9.13;5.17;;;0.70;59.20;;;;;;5036774;28;20165;-86
2022/03/11 06:56:43;;;;;;;5.80;5.20;;;0.70;59.10;;;;;;5036806;28;20199;-86
2022/03/11 06:59:08;;;;;;;6.13;5.53;;;0.80;59.40;;;;;;5019781;28;20322;-85
2022/03/11 07:01:34;;;;;;;6.33;5.63;;;0.70;58.90;;;;;;5038387;28;20687;-84
2022/03/11 07:04:02;;;;;;;6.37;5.43;;;0.80;58.90;;;;;;5023417;28;20234;-87
2022/03/11 07:06:27;;;;;;;6.03;5.53;;;0.80;58.90;;;;;;5044671;28;20204;-86
2022/03/11 07:08:53;;;;;;;5.83;5.33;;;0.90;58.80;;;;;;5043752;28;20248;-83
2022/03/11 07:11:19;;;;;;;6.90;6.17;;;1.00;58.40;;;;;;5045717;28;20232;-83
2022/03/11 07:13:45;;;;;;;6.47;5.87;;;0.90;58.00;;;;;;5041726;28;20191;-85
2022/03/11 07:16:12;;;;;;;6.80;5.70;;;1.00;58.30;;;;;;5041376;28;20178;-88
2022/03/11 07:18:38;;;;;;;6.33;5.27;;;1.10;57.50;;;;;;5037172;28;20264;-87
2022/03/11 07:21:03;;;;;;;5.97;5.33;;;1.20;61.70;;;;;;5037370;28;20641;-87
2022/03/11 07:23:30;;;;;;;6.37;5.70;;;1.40;65.00;;;;;;5036817;28;20263;-87
2022/03/11 07:25:57;;;;;;;6.00;5.50;;;1.50;62.40;;;;;;5038071;28;20548;-88
2022/03/11 07:28:23;;;;;;;7.63;5.13;;;1.60;58.00;;;;;;5037536;28;20173;-89
2022/03/11 07:30:49;;;;;;;5.97;5.47;;;1.80;59.90;;;;;;5039048;28;20173;-89
2022/03/11 07:33:14;;;;;;;6.30;5.70;;;1.70;58.90;;;;;;5020489;28;20541;-90
2022/03/11 07:35:41;;;;;;;7.13;5.97;;;1.90;60.00;;;;;;5037225;28;20221;-90
2022/03/11 07:38:08;;;;;;;6.43;5.83;;;2.10;59.10;;;;;;5036440;28;20237;-88
2022/03/11 07:40:34;;;;;;;6.80;6.10;;;2.30;59.10;;;;;;5036041;28;20171;-88
2022/03/11 07:43:00;;;;;;;6.40;5.80;;;2.40;58.00;;;;;;5018236;28;20182;-86
2022/03/11 07:45:26;;;;;;;5.87;5.37;;;2.50;58.00;;;;;;5035656;28;20202;-88
2022/03/11 07:47:52;;;;;;;6.23;5.60;;;2.70;58.10;;;;;;5018045;28;20215;-87
2022/03/11 07:50:18;;;;;;;7.53;5.70;;;2.50;56.20;;;;;;5036407;28;20179;-86
2022/03/11 07:52:44;;;;;;;5.87;5.30;;;2.40;57.20;;;;;;5041154;28;20732;-87
2022/03/11 07:55:13;;;;;;;6.33;5.40;;;2.50;57.70;;;;;;5036499;28;20206;-87
2022/03/11 07:57:42;;;;;;;6.07;5.43;;;2.60;56.30;;;;;;5036506;28;20184;-88
2022/03/11 08:00:09;;;;;;;7.83;5.67;;;2.80;57.80;;;;;;5018918;28;20179;-87
2022/03/11 08:02:35;;;;;;;7.47;5.80;;;2.90;56.80;;;;;;5036935;28;20182;-89
2022/03/11 08:05:02;;;;;;;5.83;5.30;;;2.90;56.70;;;;;;5036441;28;20253;-88
2022/03/11 08:07:28;;;;;;;6.50;5.90;;;3.10;58.00;;;;;;5036150;28;20341;-90
2022/03/11 08:09:54;;;;;;;6.90;5.83;;;3.10;57.20;;;;;;5018332;28;20187;-89
2022/03/11 08:12:20;;;;;;;6.47;5.87;;;3.10;56.60;;;;;;5035948;28;20183;-88
2022/03/11 08:14:47;;;;;;;9.43;5.70;;;3.10;55.70;;;;;;5035587;28;20259;-86
2022/03/11 08:17:13;;;;;;;7.47;5.83;;;3.00;55.50;;;;;;5017226;28;20189;-84
2022/03/11 08:19:39;;;;;;;6.63;5.80;;;2.90;54.30;;;;;;5017180;28;20176;-87
2022/03/11 08:22:05;;;;;;;6.53;5.90;;;2.80;54.30;;;;;;5017661;28;20193;-86
2022/03/11 08:24:31;;;;;;;6.17;5.57;;;2.60;54.40;;;;;;5035144;28;20209;-87
2022/03/11 08:26:56;;;;;;;8.07;5.83;;;2.40;54.00;;;;;;5035174;28;20753;-87
2022/03/11 08:29:24;;;;;;;8.20;5.97;;;2.20;54.70;;;;;;5037260;28;20186;-87
2022/03/11 08:31:53;;;;;;;7.73;5.40;;;2.10;54.50;;;;;;5037117;28;20563;-86
2022/03/11 08:34:19;;;;;;;6.07;5.57;;;1.90;54.40;;;;;;5036484;28;20182;-87
2022/03/11 08:36:44;;;;;;;6.50;5.90;;;1.80;55.40;;;;;;5037213;28;20222;-89
2022/03/11 08:39:11;;;;;;;6.50;5.90;;;1.90;55.50;;;;;;5019471;28;20182;-89
2022/03/11 08:41:36;;;;;;;6.80;5.40;;;1.90;56.40;;;;;;5042546;28;20217;-86
2022/03/11 08:44:05;;;;;;;6.57;5.97;;;1.80;56.00;;;;;;5044361;28;20174;-86
2022/03/11 08:46:31;;;;;;;7.43;6.03;;;1.70;55.20;;;;;;5040980;28;20220;-88
2022/03/11 08:48:57;;;;;;;6.67;5.77;;;1.40;55.20;;;;;;5044215;28;20199;-85
2022/03/11 08:51:23;;;;;;;6.27;5.70;;;1.30;55.90;;;;;;5046009;28;20177;-87
2022/03/11 08:53:48;;;;;;;6.27;5.70;;;1.30;56.10;;;;;;5043649;28;20207;-85
2022/03/11 08:56:20;;;;;;;6.57;5.97;;;1.40;56.30;;;;;;5038615;28;20229;-86
2022/03/11 08:58:46;;;;;;;5.87;5.37;;;1.30;55.70;;;;;;5038265;28;20170;-87
2022/03/11 09:01:12;;;;;;;6.40;5.80;;;1.20;56.00;;;;;;5030965;28;20702;-90
2022/03/11 09:03:37;;;;;;;6.60;6.00;;;1.10;56.00;;;;;;5037667;28;20226;-87
2022/03/11 09:06:03;;;;;;;6.57;5.97;;;1.10;56.70;;;;;;5036449;28;20191;-85
2022/03/11 09:08:29;;;;;;;6.40;5.70;;;1.10;57.10;;;;;;5037746;28;20255;-86
2022/03/11 09:10:55;;;;;;;6.37;5.77;;;1.30;57.30;;;;;;5040536;28;20174;-88
2022/03/11 09:13:21;;;;;;;6.10;5.57;;;1.30;57.30;;;;;;5042018;28;20178;-87
2022/03/11 09:15:47;;;;;;;6.20;5.70;;;1.40;56.90;;;;;;5043650;28;20172;-87
2022/03/11 09:18:12;;;;;;;6.33;5.83;;;1.40;57.00;;;;;;5042807;28;20182;-88
2022/03/11 09:20:39;;;;;;;6.70;5.87;;;1.50;57.00;;;;;;5035189;28;20626;-88
2022/03/11 09:23:06;;;;;;;8.07;6.10;;;1.70;57.10;;;;;;5035234;28;20178;-88
2022/03/11 09:25:32;;;;;;;8.33;6.00;;;1.70;56.90;;;;;;5034800;28;20178;-88
2022/03/11 09:27:58;;;;;;;8.57;6.17;;;1.80;56.90;;;;;;5036290;28;20186;-90
2022/03/11 09:30:24;;;;;;;6.60;5.93;;;1.70;56.30;;;;;;5035433;28;20232;-87
2022/03/11 09:32:50;;;;;;;6.40;5.77;;;1.60;55.70;;;;;;5034602;28;20204;-88
2022/03/11 09:35:15;;;;;;;6.43;5.70;;;1.50;56.10;;;;;;5037043;28;20230;-89
2022/03/11 09:37:41;;;;;;;7.50;6.37;;;1.60;56.30;;;;;;5035510;28;20642;-88
2022/03/11 09:40:12;;;;;;;7.97;6.00;;;1.60;56.90;;;;;;5017033;28;20230;-86
2022/03/11 09:42:38;;;;;;;7.00;6.23;;;1.60;56.80;;;;;;5034178;28;20180;-86
2022/03/11 09:45:05;;;;;;;8.10;6.40;;;1.80;56.60;;;;;;5033656;28;20186;-90
2022/03/11 09:47:31;;;;;;;6.63;5.93;;;1.70;56.10;;;;;;5034694;28;20237;-85
2022/03/11 09:49:57;;;;;;;6.87;6.17;;;1.60;55.50;;;;;;5033896;28;20174;-86
2022/03/11 09:52:26;;;;;;;7.33;6.70;;;1.50;55.40;;;;;;5033941;28;20257;-88
2022/03/11 09:54:52;;;;;;;8.77;6.67;;;1.50;56.40;;;;;;5034133;28;20173;-88
2022/03/11 09:57:22;;;;;;;6.97;6.27;;;1.60;56.40;;;;;;5035733;28;20673;-87
2022/03/11 09:59:47;;;;;;;6.97;6.30;;;1.50;55.70;;;;;;5034334;28;20172;-88
2022/03/11 10:02:15;;;;;;;6.67;6.07;;;1.50;56.40;;;;;;5033908;28;20540;-90
2022/03/11 10:04:51;;;;;;;9.90;6.63;;;1.50;57.30;;;;;;5034400;28;20194;-88
2022/03/11 10:07:25;;;;;;;7.53;6.83;;;1.70;56.90;;;;;;5034887;28;20213;-89
2022/03/11 10:09:52;;;;;;;8.23;6.53;;;1.80;56.80;;;;;;5035551;28;20654;-89
2022/03/11 10:12:29;;;;;;;8.27;5.97;;;1.90;57.00;;;;;;5034904;28;20197;-90
2022/03/11 10:15:01;;;;;;;8.50;6.63;;;1.90;55.90;;;;;;5034909;28;20205;-89
2022/03/11 10:17:37;;;;;;;7.40;6.40;;;1.90;56.00;;;;;;5019612;28;20175;-86
2022/03/11 10:20:06;;;;;;;7.33;6.40;;;1.80;56.00;;;;;;5022167;28;20230;-87
2022/03/11 10:22:33;;;;;;;7.23;6.17;;;1.80;56.00;;;;;;5045535;28;20163;-86
2022/03/11 10:25:09;;;;;;;7.63;6.93;;;1.90;56.50;;;;;;5043851;28;20265;-87
2022/03/11 10:28:08;;;;;;;7.37;6.67;;;1.90;57.00;;;;;;5035721;28;20204;-88
2022/03/11 10:30:40;;;;;;;8.03;6.97;;;2.10;57.30;;;;;;5035648;28;20169;-89
2022/03/11 10:33:09;;;;;;;7.43;6.50;;;2.10;57.30;;;;;;5019129;28;20202;-90
2022/03/11 10:35:42;;;;;;;7.17;6.40;;;2.20;57.30;;;;;;5018166;28;20589;-87
2022/03/11 10:38:10;;;;;;;8.27;6.50;;;2.30;57.50;;;;;;5036164;28;20166;-88
2022/03/11 10:41:02;;;;;;;7.57;6.83;;;2.30;56.30;;;;;;5018110;28;20275;-87
2022/03/11 10:43:32;;;;;;;7.27;6.60;;;2.30;56.10;;;;;;5034754;28;20165;-87
2022/03/11 10:46:06;;;;;;;7.60;6.80;;;2.30;57.20;;;;;;5034229;28;20238;-85
2022/03/11 10:48:51;;;;;;;7.93;6.60;;;2.40;57.20;;;;;;5034561;28;20179;-88
2022/03/11 10:51:27;;;;;;;7.57;6.77;;;2.50;57.00;;;;;;5039774;28;20280;-89
2022/03/11 10:53:54;;;;;;;9.40;7.10;;;2.50;56.10;;;;;;5021374;28;20626;-86
2022/03/11 10:56:34;;;;;;;7.63;6.77;;;2.70;56.40;;;;;;5020864;28;20194;-89
2022/03/11 10:59:20;;;;;;;7.23;6.53;;;2.70;56.50;;;;;;5037285;28;20157;-86
2022/03/11 11:01:47;;;;;;;8.20;7.40;;;2.80;57.40;;;;;;5028873;28;20184;-87
2022/03/11 11:04:15;;;;;;;8.40;7.60;;;2.70;56.50;;;;;;5020553;28;20599;-84
2022/03/11 11:06:45;;;;;;;7.90;7.10;;;2.70;55.80;;;;;;5043867;28;20204;-87
2022/03/11 11:09:13;;;;;;;7.70;7.00;;;2.70;57.60;;;;;;5046851;28;20202;-83
2022/03/11 11:11:40;;;;;;;8.47;7.27;;;2.80;57.00;;;;;;5047243;28;20171;-88
2022/03/11 11:14:08;;;;;;;7.77;6.83;;;2.70;56.20;;;;;;5047309;28;20646;-83
2022/03/11 11:16:43;;;;;;;7.60;6.90;;;2.80;56.80;;;;;;5027304;28;20182;-88
2022/03/11 11:19:11;;;;;;;9.73;7.20;;;2.80;56.70;;;;;;5050991;28;20170;-87
2022/03/11 11:21:43;;;;;;;9.53;7.43;;;2.80;55.80;;;;;;5048955;28;20173;-87
2022/03/11 11:24:23;;;;;;;8.63;6.80;;;2.90;56.40;;;;;;5040237;28;20222;-85
2022/03/11 11:26:53;;;;;;;8.07;7.27;;;2.80;56.20;;;;;;5019260;28;20617;-87
2022/03/11 11:29:32;;;;;;;7.67;6.97;;;3.00;57.10;;;;;;5019068;28;20183;-86
2022/03/11 11:32:04;;;;;;;8.87;6.67;;;2.90;56.80;;;;;;5037257;28;20165;-88
2022/03/11 11:34:37;;;;;;;8.27;7.10;;;3.10;56.80;;;;;;5018406;28;20604;-87
2022/03/11 11:37:06;;;;;;;7.40;6.70;;;3.20;56.10;;;;;;5038915;28;20184;-84
2022/03/11 11:39:47;;;;;;;7.70;6.90;;;3.10;56.10;;;;;;5039459;28;20632;-88
2022/03/11 11:42:14;;;;;;;9.30;6.80;;;3.10;56.30;;;;;;5037786;28;20209;-87
2022/03/11 11:44:43;;;;;;;8.63;7.27;;;3.20;57.00;;;;;;5037088;28;20181;-86
2022/03/11 11:47:14;;;;;;;7.63;6.70;;;3.20;56.90;;;;;;5036311;28;20202;-88
2022/03/11 11:49:45;;;;;;;7.50;6.80;;;3.20;56.30;;;;;;5035981;28;20258;-86
2022/03/11 11:52:27;;;;;;;7.83;6.97;;;3.30;56.60;;;;;;5036197;28;20168;-86
2022/03/11 11:55:11;;;;;;;7.63;6.93;;;3.30;56.50;;;;;;5036259;28;20299;-88
2022/03/11 11:57:38;;;;;;;7.57;6.80;;;3.40;57.30;;;;;;5018082;28;20172;-86
2022/03/11 12:00:27;;;;;;;7.77;7.03;;;3.40;56.40;;;;;;5036262;28;20176;-88
2022/03/11 12:02:54;;;;;;;7.93;7.13;;;3.40;56.70;;;;;;5037500;28;20175;-88
2022/03/11 12:05:44;;;;;;;8.10;7.30;;;3.50;56.20;;;;;;5018364;28;20529;-88
2022/03/11 12:08:46;;;;;;;8.83;7.03;;;3.50;56.70;;;;;;5037638;28;20222;-89
2022/03/11 12:11:38;;;;;;;10.90;7.67;;;3.40;55.80;;;;;;5023551;28;20247;-88
2022/03/11 12:14:04;;;;;;;9.17;7.20;;;3.50;66.90;;;;;;5043250;28;20164;-89
2022/03/11 12:17:03;;;;;;;17.03;8.33;;;3.70;62.90;;;;;;5036886;28;20263;-87
2022/03/11 12:19:46;;;;;;;291.23;74.63;;;3.80;59.40;;;;;;5035577;28;20621;-87
2022/03/11 12:22:30;;;;;;;44.77;21.20;;;3.90;62.90;;;;;;5017694;28;20199;-88
2022/03/11 12:25:05;;;;;;;10.27;8.88;;;4.10;62.20;;;;;;5034335;28;20453;-89
2022/03/11 12:28:04;;;;;;;7.83;7.13;;;4.20;57.90;;;;;;5035360;28;20201;-88
2022/03/11 12:30:33;;;;;;;9.00;7.27;;;4.30;56.20;;;;;;5035247;28;20176;-89
2022/03/11 12:33:05;;;;;;;8.67;7.27;;;4.20;55.90;;;;;;5017072;28;20190;-84
2022/03/11 12:35:31;;;;;;;8.20;7.43;;;4.20;56.40;;;;;;5034695;28;20235;-88
2022/03/11 12:37:57;;;;;;;8.73;7.73;;;4.20;56.40;;;;;;5035499;28;20522;-87
2022/03/11 12:40:24;;;;;;;8.50;6.97;;;4.20;55.90;;;;;;5036750;28;20176;-90
2022/03/11 12:43:01;;;;;;;8.93;7.67;;;4.20;55.90;;;;;;5036358;28;20172;-85
2022/03/11 12:45:32;;;;;;;8.43;7.57;;;4.20;55.60;;;;;;5020292;28;20173;-86
2022/03/11 12:47:57;;;;;;;8.57;7.67;;;4.20;56.10;;;;;;5034981;28;20200;-86
2022/03/11 12:50:23;;;;;;;8.27;7.47;;;4.20;56.00;;;;;;5035309;28;20232;-89
2022/03/11 12:52:50;;;;;;;9.30;7.40;;;4.30;55.30;;;;;;5035353;28;20186;-86
2022/03/11 12:55:27;;;;;;;8.97;7.80;;;4.20;56.10;;;;;;5037842;28;20643;-89
2022/03/11 12:57:54;;;;;;;8.77;7.83;;;4.10;55.90;;;;;;5039915;28;20167;-89
2022/03/11 13:00:25;;;;;;;8.63;7.60;;;4.10;56.40;;;;;;5027383;28;20179;-86